Bonn-Hangelar Airport


Codes: EDKB/BNJ
Name: Bonn-Hangelar Airport
City: Bonn
Country: Germany
Elevation: 197 ft.
Wikipedia:

Photos at Bonn-Hangelar Airport


   Photos courtesy of SpottingLog. You can add your own sightings and photos by signing up for a free trial today.



No photos found.

Weather at Bonn-Hangelar Airport


Time (UTC)DescriptionTempratureWindCloud coverageVisibilityPressureHumidity
16-Jun-2024 12:00Light Rain18°C7 mph, SW83%10000m1008hPa65%
16-Jun-2024 15:00Light Rain16°C9 mph, SW92%10000m1009hPa76%
16-Jun-2024 18:00Light Rain16°C7 mph, SW98%10000m1009hPa77%
16-Jun-2024 21:00Light Rain13°C4 mph, S82%10000m1010hPa93%
17-Jun-2024 00:00Light Rain14°C7 mph, S86%10000m1011hPa90%
17-Jun-2024 03:00Light Rain13°C4 mph, SE100%10000m1011hPa97%
17-Jun-2024 06:00Light Rain15°C7 mph, S100%10000m1012hPa93%
17-Jun-2024 09:00Light Rain18°C9 mph, SW70%10000m1013hPa77%
17-Jun-2024 12:00Light Rain23°C9 mph, W64%10000m1013hPa46%
17-Jun-2024 15:00Light Rain21°C7 mph, W98%10000m1013hPa69%
17-Jun-2024 18:00Light Rain18°C2 mph, W99%10000m1014hPa87%
17-Jun-2024 21:00Broken Clouds15°C2 mph, S57%10000m1015hPa94%
18-Jun-2024 00:00Broken Clouds14°C4 mph, S67%10000m1015hPa97%
18-Jun-2024 03:00Overcast Clouds14°C2 mph, SE99%10000m1015hPa97%
18-Jun-2024 06:00Overcast Clouds16°C4 mph, SE99%10000m1015hPa91%
18-Jun-2024 09:00Scattered Clouds23°C2 mph, SE26%10000m1015hPa62%
18-Jun-2024 12:00Light Rain23°C4 mph, SW48%10000m1014hPa72%
18-Jun-2024 15:00Moderate Rain20°C4 mph, W100%7732m1013hPa93%
18-Jun-2024 18:00Light Rain18°C4 mph, NW100%10000m1012hPa96%
18-Jun-2024 21:00Heavy Intensity Rain16°C2 mph, NW100%10000m1014hPa99%
19-Jun-2024 00:00Light Rain15°C4 mph, NW100%10000m1017hPa98%
19-Jun-2024 03:00Light Rain14°C4 mph, NW90%4569m1019hPa99%
19-Jun-2024 06:00Light Rain14°C4 mph, NW95%10000m1021hPa95%
19-Jun-2024 09:00Light Rain17°C4 mph, NW98%10000m1022hPa74%
19-Jun-2024 12:00Overcast Clouds21°C7 mph, NW90%10000m1023hPa48%
19-Jun-2024 15:00Broken Clouds22°C4 mph, NW76%10000m1022hPa44%
19-Jun-2024 18:00Scattered Clouds20°C4 mph, NW42%10000m1023hPa65%
19-Jun-2024 21:00Clear Sky14°C2 mph, NE4%10000m1023hPa81%
20-Jun-2024 00:00Clear Sky12°C4 mph, SE4%10000m1022hPa86%
20-Jun-2024 03:00Clear Sky11°C4 mph, E1%10000m1021hPa86%
20-Jun-2024 06:00Clear Sky16°C4 mph, SE3%10000m1020hPa69%
20-Jun-2024 09:00Broken Clouds22°C9 mph, SE53%10000m1019hPa51%
20-Jun-2024 12:00Broken Clouds23°C7 mph, SE66%10000m1017hPa57%
20-Jun-2024 15:00Broken Clouds26°C9 mph, SE76%10000m1014hPa54%
20-Jun-2024 18:00Broken Clouds25°C4 mph, SE60%10000m1011hPa69%
20-Jun-2024 21:00Broken Clouds22°C7 mph, W83%10000m1011hPa81%
21-Jun-2024 00:00Light Rain19°C7 mph, SE92%10000m1009hPa98%
21-Jun-2024 03:00Few Clouds19°C2 mph, S18%10000m1009hPa97%
21-Jun-2024 06:00Scattered Clouds21°C9 mph, SW42%10000m1011hPa86%
21-Jun-2024 09:00Overcast Clouds21°C11 mph, SW100%10000m1013hPa74%